createdAt,value
2018-10-05T00:00:29.636Z,4.00
2018-10-05T00:01:30.337Z,4.00
2018-10-05T00:02:29.834Z,4.00
2018-10-05T00:03:29.625Z,4.00
2018-10-05T00:04:29.625Z,4.00
2018-10-05T00:05:29.610Z,4.00
2018-10-05T00:06:29.588Z,4.00
2018-10-05T00:07:31.530Z,4.00
2018-10-05T00:08:29.564Z,4.00
2018-10-05T00:09:29.597Z,4.00
2018-10-05T00:10:29.542Z,4.00
2018-10-05T00:11:29.578Z,4.00
2018-10-05T00:12:29.546Z,4.00
2018-10-05T00:13:31.467Z,4.00
2018-10-05T00:14:29.526Z,4.00
2018-10-05T00:15:29.556Z,4.00
2018-10-05T00:16:29.477Z,4.00
2018-10-05T00:17:29.497Z,4.00
2018-10-05T00:18:29.467Z,4.00
2018-10-05T00:19:31.420Z,4.00
2018-10-05T00:20:29.467Z,4.00
2018-10-05T00:21:29.446Z,4.00
2018-10-05T00:22:29.433Z,4.00
2018-10-05T00:23:29.433Z,4.00
2018-10-05T00:24:29.417Z,4.00
2018-10-05T00:25:31.449Z,4.00
2018-10-05T00:26:29.405Z,4.00
2018-10-05T00:27:29.385Z,4.00
2018-10-05T00:28:29.394Z,4.00
2018-10-05T00:29:29.361Z,4.00
2018-10-05T00:30:29.366Z,4.00
2018-10-05T00:31:30.034Z,4.00
2018-10-05T00:32:29.514Z,4.00
2018-10-05T00:33:29.345Z,4.00
2018-10-05T00:34:29.334Z,4.00
2018-10-05T00:35:29.330Z,4.00
2018-10-05T00:36:29.316Z,4.00
2018-10-05T00:37:31.286Z,4.00
2018-10-05T00:38:29.297Z,4.00
2018-10-05T00:39:29.472Z,4.00
2018-10-05T00:40:29.279Z,4.00
2018-10-05T00:41:29.267Z,4.00
2018-10-05T00:42:29.261Z,4.00
2018-10-05T00:43:31.138Z,4.00
2018-10-05T00:44:29.253Z,4.00
2018-10-05T00:45:29.428Z,4.00
2018-10-05T00:46:29.205Z,4.00
2018-10-05T00:47:29.225Z,4.00
2018-10-05T00:48:29.175Z,4.00
2018-10-05T00:49:29.735Z,4.00
2018-10-05T00:50:29.169Z,4.00
2018-10-05T00:51:29.152Z,4.00
2018-10-05T00:52:29.152Z,4.00
2018-10-05T00:53:29.252Z,4.00
2018-10-05T00:54:31.143Z,4.00
2018-10-05T00:55:29.367Z,4.00
2018-10-05T00:56:29.116Z,4.00
2018-10-05T00:57:29.120Z,4.00
2018-10-05T00:58:29.096Z,4.00
2018-10-05T00:59:29.322Z,4.00
2018-10-05T01:00:30.911Z,4.00
2018-10-05T01:01:29.053Z,4.00
2018-10-05T01:02:29.034Z,4.00
2018-10-05T01:03:29.056Z,4.00
2018-10-05T01:04:29.049Z,4.00
2018-10-05T01:05:29.036Z,4.00
2018-10-05T01:06:29.530Z,4.00
2018-10-05T01:07:29.007Z,4.00
2018-10-05T01:08:28.992Z,4.00
2018-10-05T01:09:28.997Z,4.00
2018-10-05T01:10:29.171Z,4.00
2018-10-05T01:11:29.016Z,8.00
2018-10-05T01:12:30.985Z,4.00
2018-10-05T01:13:28.989Z,4.00
2018-10-05T01:14:28.911Z,4.00
2018-10-05T01:15:28.926Z,4.00
2018-10-05T01:16:29.126Z,4.00
2018-10-05T01:17:28.900Z,4.00
2018-10-05T01:18:30.901Z,4.00
2018-10-05T01:19:28.892Z,4.00
2018-10-05T01:20:28.891Z,4.00
2018-10-05T01:21:28.873Z,4.00
2018-10-05T01:22:28.913Z,4.00
2018-10-05T01:23:28.879Z,4.00
2018-10-05T01:24:29.440Z,4.00
2018-10-05T01:25:29.021Z,4.00
2018-10-05T01:26:28.822Z,4.00
2018-10-05T01:27:28.844Z,4.00
2018-10-05T01:28:28.795Z,4.00
2018-10-05T01:29:28.800Z,4.00
2018-10-05T01:30:30.892Z,4.00
2018-10-05T01:31:28.782Z,4.00
2018-10-05T01:32:29.001Z,4.00
2018-10-05T01:33:28.789Z,4.00
2018-10-05T01:34:28.744Z,4.00
2018-10-05T01:35:28.732Z,4.00
2018-10-05T01:36:30.684Z,4.00
2018-10-05T01:37:28.716Z,4.00
2018-10-05T01:38:28.705Z,4.00
2018-10-05T01:39:28.673Z,4.00
2018-10-05T01:40:28.696Z,4.00
2018-10-05T01:41:28.682Z,4.00
2018-10-05T01:42:30.867Z,4.00
2018-10-05T01:43:28.653Z,4.00
2018-10-05T01:44:28.648Z,4.00
2018-10-05T01:45:28.644Z,4.00
2018-10-05T01:46:28.621Z,4.00
2018-10-05T01:47:28.639Z,4.00
2018-10-05T01:48:30.600Z,4.00
2018-10-05T01:49:28.590Z,4.00
2018-10-05T01:50:28.602Z,4.00
2018-10-05T01:51:28.572Z,4.00
2018-10-05T01:52:28.570Z,4.00
2018-10-05T01:53:28.558Z,4.00
2018-10-05T01:54:30.503Z,4.00
2018-10-05T01:55:28.531Z,4.00
2018-10-05T01:56:28.545Z,4.00
2018-10-05T01:57:28.507Z,4.00
2018-10-05T01:58:28.497Z,4.00
2018-10-05T01:59:28.513Z,4.00
2018-10-05T02:00:30.579Z,4.00
2018-10-05T02:01:28.490Z,4.00
2018-10-05T02:02:28.518Z,4.00
2018-10-05T02:03:28.492Z,4.00
2018-10-05T02:04:28.443Z,4.00
2018-10-05T02:05:28.437Z,4.00
2018-10-05T02:06:32.333Z,4.00
2018-10-05T02:07:28.412Z,4.00
2018-10-05T02:08:28.402Z,4.00
2018-10-05T02:09:28.404Z,4.00
2018-10-05T02:10:28.401Z,4.00
2018-10-05T02:11:28.423Z,4.00
2018-10-05T02:12:29.186Z,4.00
2018-10-05T02:13:28.344Z,4.00
2018-10-05T02:14:28.349Z,4.00
2018-10-05T02:15:28.322Z,4.00
2018-10-05T02:16:28.313Z,4.00
2018-10-05T02:17:28.304Z,4.00
2018-10-05T02:18:28.841Z,4.00
2018-10-05T02:19:28.303Z,4.00
2018-10-05T02:20:28.287Z,4.00
2018-10-05T02:21:28.271Z,4.00
2018-10-05T02:22:28.271Z,4.00
2018-10-05T02:23:28.258Z,4.00
2018-10-05T02:24:33.758Z,4.00
2018-10-05T02:25:28.241Z,4.00
2018-10-05T02:26:28.246Z,4.00
2018-10-05T02:27:28.291Z,4.00
2018-10-05T02:28:28.193Z,4.00
2018-10-05T02:29:28.196Z,4.00
2018-10-05T02:30:32.128Z,4.00
2018-10-05T02:31:28.183Z,4.00
2018-10-05T02:32:28.200Z,4.00
2018-10-05T02:33:28.142Z,4.00
2018-10-05T02:34:28.166Z,4.00
2018-10-05T02:35:28.159Z,4.00
2018-10-05T02:36:30.522Z,4.00
2018-10-05T02:37:28.102Z,4.00
2018-10-05T02:38:28.107Z,4.00
2018-10-05T02:39:28.093Z,4.00
2018-10-05T02:40:28.094Z,4.00
2018-10-05T02:41:28.140Z,4.00
2018-10-05T02:42:28.581Z,4.00
2018-10-05T02:43:28.052Z,4.00
2018-10-05T02:44:28.040Z,4.00
2018-10-05T02:45:28.055Z,4.00
2018-10-05T02:46:28.028Z,4.00
2018-10-05T02:47:28.033Z,4.00
2018-10-05T02:48:28.022Z,4.00
2018-10-05T02:49:28.005Z,4.00
2018-10-05T02:50:28.015Z,4.00
2018-10-05T02:51:27.985Z,4.00
2018-10-05T02:52:27.983Z,4.00
2018-10-05T02:53:27.974Z,4.00
2018-10-05T02:54:27.944Z,4.00
2018-10-05T02:55:27.961Z,4.00
2018-10-05T02:56:28.042Z,4.00
2018-10-05T02:57:27.921Z,4.00
2018-10-05T02:58:27.903Z,4.00
2018-10-05T02:59:27.952Z,4.00
2018-10-05T03:00:27.913Z,4.00
2018-10-05T03:01:27.879Z,4.00
2018-10-05T03:02:27.876Z,4.00
2018-10-05T03:03:27.875Z,4.00
2018-10-05T03:04:27.866Z,4.00
2018-10-05T03:05:27.853Z,4.00
2018-10-05T03:06:27.841Z,4.00
2018-10-05T03:07:27.832Z,4.00
2018-10-05T03:08:27.807Z,4.00
2018-10-05T03:09:27.789Z,4.00
2018-10-05T03:10:27.787Z,4.00
2018-10-05T03:11:27.787Z,4.00
2018-10-05T03:12:27.885Z,4.00
2018-10-05T03:13:27.802Z,4.00
2018-10-05T03:14:27.764Z,4.00
2018-10-05T03:15:27.743Z,4.00
2018-10-05T03:16:27.739Z,4.00
2018-10-05T03:17:27.713Z,4.00
2018-10-05T03:18:27.711Z,4.00
2018-10-05T03:19:27.695Z,4.00
2018-10-05T03:20:27.685Z,4.00
2018-10-05T03:21:27.697Z,4.00
2018-10-05T03:22:27.666Z,4.00
2018-10-05T03:23:27.678Z,4.00
2018-10-05T03:24:27.668Z,4.00
2018-10-05T03:25:27.640Z,4.00
2018-10-05T03:26:27.647Z,4.00
2018-10-05T03:27:27.628Z,4.00
2018-10-05T03:28:27.623Z,4.00
2018-10-05T03:29:27.601Z,4.00
2018-10-05T03:30:27.618Z,4.00
2018-10-05T03:31:27.599Z,4.00
2018-10-05T03:32:27.584Z,4.00
2018-10-05T03:33:27.655Z,4.00
2018-10-05T03:34:27.559Z,4.00
2018-10-05T03:35:27.554Z,4.00
2018-10-05T03:36:27.526Z,4.00
2018-10-05T03:37:27.536Z,4.00
2018-10-05T03:38:27.563Z,4.00
2018-10-05T03:39:27.509Z,4.00
2018-10-05T03:40:27.534Z,4.00
2018-10-05T03:41:27.486Z,4.00
2018-10-05T03:42:27.467Z,4.00
2018-10-05T03:43:27.448Z,4.00
2018-10-05T03:44:27.563Z,4.00
2018-10-05T03:45:27.442Z,4.00
2018-10-05T03:46:27.436Z,4.00
2018-10-05T03:47:27.426Z,4.00
2018-10-05T03:48:27.408Z,4.00
2018-10-05T03:49:27.388Z,4.00
2018-10-05T03:50:27.404Z,4.00
2018-10-05T03:51:27.431Z,4.00
2018-10-05T03:52:27.373Z,4.00
2018-10-05T03:53:27.373Z,4.00
2018-10-05T03:54:27.356Z,4.00
2018-10-05T03:55:27.346Z,4.00
2018-10-05T03:56:27.316Z,4.00
2018-10-05T03:57:27.335Z,4.00
2018-10-05T03:58:27.316Z,4.00
2018-10-05T03:59:27.295Z,4.00
2018-10-05T04:00:27.319Z,4.00
2018-10-05T04:01:27.291Z,4.00
2018-10-05T04:02:27.304Z,4.00
2018-10-05T04:03:27.272Z,4.00
2018-10-05T04:04:27.255Z,4.00
2018-10-05T04:05:27.246Z,4.00
2018-10-05T04:06:27.245Z,4.00
2018-10-05T04:07:27.219Z,4.00
2018-10-05T04:08:27.212Z,4.00
2018-10-05T04:09:27.195Z,4.00
2018-10-05T04:10:27.206Z,4.00
2018-10-05T04:11:27.162Z,4.00
2018-10-05T04:12:27.161Z,4.00
2018-10-05T04:13:27.162Z,4.00
2018-10-05T04:14:27.146Z,4.00
2018-10-05T04:15:27.142Z,4.00
2018-10-05T04:16:27.119Z,4.00
2018-10-05T04:17:27.124Z,4.00
2018-10-05T04:18:27.109Z,4.00
2018-10-05T04:19:27.125Z,4.00
2018-10-05T04:20:27.108Z,4.00
2018-10-05T04:21:27.098Z,4.00
2018-10-05T04:22:27.061Z,4.00
2018-10-05T04:23:27.076Z,4.00
2018-10-05T04:24:27.061Z,4.00
2018-10-05T04:25:27.038Z,4.00
2018-10-05T04:26:27.058Z,4.00
2018-10-05T04:27:27.068Z,4.00
2018-10-05T04:28:27.008Z,4.00
2018-10-05T04:29:26.992Z,4.00
2018-10-05T04:30:27.008Z,4.00
2018-10-05T04:31:26.997Z,4.00
2018-10-05T04:32:26.960Z,4.00
2018-10-05T04:33:26.965Z,4.00
2018-10-05T04:34:26.968Z,4.00
2018-10-05T04:35:26.958Z,4.00
2018-10-05T04:36:26.954Z,4.00
2018-10-05T04:37:26.946Z,4.00
2018-10-05T04:38:26.964Z,4.00
2018-10-05T04:39:26.902Z,4.00
2018-10-05T04:40:26.890Z,4.00
2018-10-05T04:41:26.884Z,4.00
2018-10-05T04:42:26.887Z,4.00
2018-10-05T04:43:26.874Z,4.00
2018-10-05T04:44:26.884Z,4.00
2018-10-05T04:45:26.859Z,4.00
2018-10-05T04:46:26.855Z,4.00
2018-10-05T04:47:26.831Z,4.00
2018-10-05T04:48:27.121Z,4.00
2018-10-05T04:49:26.824Z,4.00
2018-10-05T04:50:26.806Z,4.00
2018-10-05T04:51:26.788Z,4.00
2018-10-05T04:52:26.769Z,4.00
2018-10-05T04:53:26.757Z,4.00
2018-10-05T04:54:26.765Z,4.00
2018-10-05T04:55:26.764Z,4.00
2018-10-05T04:56:26.835Z,4.00
2018-10-05T04:57:26.717Z,4.00
2018-10-05T04:58:26.750Z,4.00
2018-10-05T04:59:26.969Z,4.00
2018-10-05T05:00:26.704Z,4.00
2018-10-05T05:01:26.682Z,4.00
2018-10-05T05:02:26.668Z,4.00
2018-10-05T05:03:26.704Z,4.00
2018-10-05T05:04:26.648Z,4.00
2018-10-05T05:05:26.652Z,4.00
2018-10-05T05:06:26.686Z,4.00
2018-10-05T05:07:26.614Z,4.00
2018-10-05T05:08:26.614Z,4.00
2018-10-05T05:09:26.608Z,4.00
2018-10-05T05:10:26.865Z,4.00
2018-10-05T05:11:26.590Z,4.00
2018-10-05T05:12:26.582Z,4.00
2018-10-05T05:13:26.572Z,4.00
2018-10-05T05:14:26.555Z,4.00
2018-10-05T05:15:26.555Z,4.00
2018-10-05T05:16:26.566Z,4.00
2018-10-05T05:17:26.507Z,4.00
2018-10-05T05:18:26.511Z,4.00
2018-10-05T05:19:26.529Z,4.00
2018-10-05T05:20:26.485Z,4.00
2018-10-05T05:21:26.551Z,4.00
2018-10-05T05:22:26.486Z,4.00
2018-10-05T05:23:26.485Z,4.00
2018-10-05T05:24:26.489Z,4.00
2018-10-05T05:25:26.454Z,4.00
2018-10-05T05:26:26.541Z,4.00
2018-10-05T05:27:26.435Z,4.00
2018-10-05T05:28:26.455Z,4.00
2018-10-05T05:29:26.407Z,4.00
2018-10-05T05:30:26.417Z,4.00
2018-10-05T05:31:26.400Z,4.00
2018-10-05T05:32:26.379Z,4.00
2018-10-05T05:33:26.416Z,4.00
2018-10-05T05:34:26.351Z,4.00
2018-10-05T05:35:26.338Z,4.00
2018-10-05T05:36:26.361Z,4.00
2018-10-05T05:37:26.586Z,4.00
2018-10-05T05:38:26.330Z,4.00
2018-10-05T05:39:26.318Z,4.00
2018-10-05T05:40:26.312Z,4.00
2018-10-05T05:41:26.303Z,4.00
2018-10-05T05:42:26.292Z,4.00
2018-10-05T05:43:26.266Z,4.00
2018-10-05T05:44:26.277Z,4.00
2018-10-05T05:45:26.261Z,4.00
2018-10-05T05:46:26.256Z,4.00
2018-10-05T05:47:26.217Z,4.00
2018-10-05T05:48:26.519Z,4.00
2018-10-05T05:49:26.224Z,4.00
2018-10-05T05:50:26.204Z,4.00
2018-10-05T05:51:26.213Z,4.00
2018-10-05T05:52:26.188Z,4.00
2018-10-05T05:53:26.192Z,4.00
2018-10-05T05:54:26.244Z,4.00
2018-10-05T05:55:26.164Z,4.00
2018-10-05T05:56:26.136Z,4.00
2018-10-05T05:57:26.114Z,4.00
2018-10-05T05:58:26.155Z,4.00
2018-10-05T05:59:26.360Z,4.00
2018-10-05T06:00:26.090Z,4.00
2018-10-05T06:01:26.101Z,4.00
2018-10-05T06:02:26.085Z,4.00
2018-10-05T06:03:26.073Z,4.00
2018-10-05T06:04:26.044Z,4.00
2018-10-05T06:05:26.045Z,4.00
2018-10-05T06:06:26.073Z,4.00
2018-10-05T06:07:26.017Z,4.00
2018-10-05T06:08:26.030Z,4.00
2018-10-05T06:09:26.018Z,4.00
2018-10-05T06:10:25.990Z,4.00
2018-10-05T06:11:26.041Z,4.00
2018-10-05T06:12:25.985Z,4.00
2018-10-05T06:13:25.970Z,4.00
2018-10-05T06:14:25.951Z,4.00
2018-10-05T06:15:26.096Z,4.00
2018-10-05T06:16:25.972Z,4.00
2018-10-05T06:17:25.932Z,4.00
2018-10-05T06:18:25.930Z,4.00
2018-10-05T06:19:25.945Z,4.00
2018-10-05T06:20:25.898Z,4.00
2018-10-05T06:21:25.915Z,4.00
2018-10-05T06:22:26.011Z,4.00
2018-10-05T06:23:25.851Z,4.00
2018-10-05T06:24:25.839Z,4.00
2018-10-05T06:25:25.836Z,4.00
2018-10-05T06:26:25.930Z,4.00
2018-10-05T06:27:26.008Z,4.00
2018-10-05T06:28:25.811Z,4.00
2018-10-05T06:29:25.806Z,4.00
2018-10-05T06:30:25.803Z,4.00
2018-10-05T06:31:25.797Z,4.00
2018-10-05T06:32:25.789Z,4.00
2018-10-05T06:33:25.871Z,4.00
2018-10-05T06:34:25.760Z,4.00
2018-10-05T06:35:25.748Z,4.00
2018-10-05T06:36:25.743Z,8.00
2018-10-05T06:37:25.721Z,4.00
2018-10-05T06:38:25.720Z,4.00
2018-10-05T06:39:25.708Z,4.00
2018-10-05T06:40:25.704Z,4.00
2018-10-05T06:41:25.700Z,4.00
2018-10-05T06:42:25.975Z,4.00
2018-10-05T06:43:25.651Z,4.00
2018-10-05T06:44:25.670Z,4.00
2018-10-05T06:45:25.661Z,4.00
2018-10-05T06:46:25.620Z,4.00
2018-10-05T06:47:25.628Z,4.00
2018-10-05T06:48:25.605Z,4.00
2018-10-05T06:49:25.605Z,4.00
2018-10-05T06:50:25.585Z,4.00
2018-10-05T06:51:25.564Z,4.00
2018-10-05T06:52:25.590Z,4.00
2018-10-05T06:53:25.629Z,4.00
2018-10-05T06:54:25.563Z,4.00
2018-10-05T06:55:25.553Z,4.00
2018-10-05T06:56:25.514Z,4.00
2018-10-05T06:57:25.529Z,4.00
2018-10-05T06:58:25.493Z,4.00
2018-10-05T06:59:25.543Z,4.00
2018-10-05T07:00:25.501Z,4.00
2018-10-05T07:01:25.505Z,4.00
2018-10-05T07:02:25.477Z,4.00
2018-10-05T07:03:25.484Z,4.00
2018-10-05T07:04:25.477Z,4.00
2018-10-05T07:05:25.434Z,4.00
2018-10-05T07:06:25.422Z,4.00
2018-10-05T07:07:25.482Z,4.00
2018-10-05T07:08:25.418Z,4.00
2018-10-05T07:09:25.466Z,4.00
2018-10-05T07:10:25.387Z,4.00
2018-10-05T07:11:25.440Z,4.00
2018-10-05T07:12:25.386Z,4.00
2018-10-05T07:13:25.349Z,4.00
2018-10-05T07:14:25.391Z,4.00
2018-10-05T07:15:25.353Z,4.00
2018-10-05T07:16:25.346Z,4.00
2018-10-05T07:17:25.329Z,4.00
2018-10-05T07:18:25.409Z,4.00
2018-10-05T07:19:25.295Z,4.00
2018-10-05T07:20:25.289Z,4.00
2018-10-05T07:21:25.407Z,4.00
2018-10-05T07:22:25.303Z,4.00
2018-10-05T07:23:25.282Z,4.00
2018-10-05T07:24:25.260Z,4.00
2018-10-05T07:25:25.226Z,4.00
2018-10-05T07:26:25.233Z,4.00
2018-10-05T07:27:25.229Z,4.00
2018-10-05T07:28:25.296Z,4.00
2018-10-05T07:29:25.199Z,4.00
2018-10-05T07:30:25.208Z,4.00
2018-10-05T07:31:25.186Z,4.00
2018-10-05T07:32:25.177Z,4.00
2018-10-05T07:33:25.173Z,4.00
2018-10-05T07:34:25.292Z,4.00
2018-10-05T07:35:25.148Z,4.00
2018-10-05T07:36:25.142Z,4.00
2018-10-05T07:37:25.188Z,4.00
2018-10-05T07:38:25.113Z,4.00
2018-10-05T07:39:25.114Z,4.00
2018-10-05T07:40:25.086Z,4.00
2018-10-05T07:41:25.114Z,4.00
2018-10-05T07:42:25.082Z,4.00
2018-10-05T07:43:25.051Z,4.00
2018-10-05T07:44:25.029Z,4.00
2018-10-05T07:45:25.052Z,4.00
2018-10-05T07:46:25.074Z,4.00
2018-10-05T07:47:25.070Z,4.00
2018-10-05T07:48:25.010Z,4.00
2018-10-05T07:49:24.992Z,4.00
2018-10-05T07:50:24.975Z,4.00
2018-10-05T07:51:24.975Z,4.00
2018-10-05T07:52:25.009Z,4.00
2018-10-05T07:53:24.958Z,4.00
2018-10-05T07:54:24.970Z,4.00
2018-10-05T07:55:24.930Z,4.00
2018-10-05T07:56:25.027Z,4.00
2018-10-05T07:57:24.974Z,4.00
2018-10-05T07:58:24.913Z,4.00
2018-10-05T07:59:24.905Z,4.00
2018-10-05T08:00:24.935Z,4.00
2018-10-05T08:01:24.895Z,4.00
2018-10-05T08:02:24.964Z,4.00
2018-10-05T08:03:24.837Z,4.00
2018-10-05T08:04:24.895Z,4.00
2018-10-05T08:05:24.841Z,4.00
2018-10-05T08:06:24.841Z,4.00
2018-10-05T08:07:24.813Z,4.00
2018-10-05T08:08:24.819Z,4.00
2018-10-05T08:09:24.815Z,4.00
2018-10-05T08:10:24.804Z,4.00
2018-10-05T08:11:24.823Z,4.00
2018-10-05T08:12:24.766Z,4.00
2018-10-05T08:13:24.768Z,4.00
2018-10-05T08:14:24.761Z,4.00
2018-10-05T08:15:24.739Z,4.00
2018-10-05T08:16:24.725Z,4.00
2018-10-05T08:17:24.716Z,4.00
2018-10-05T08:18:24.707Z,4.00
2018-10-05T08:19:24.679Z,4.00
2018-10-05T08:20:24.702Z,4.00
2018-10-05T08:21:24.750Z,4.00
2018-10-05T08:22:24.660Z,4.00
2018-10-05T08:23:24.663Z,8.00
2018-10-05T08:24:24.645Z,8.00
2018-10-05T08:25:24.636Z,8.00
2018-10-05T08:26:24.639Z,8.00
2018-10-05T08:27:24.617Z,8.00
2018-10-05T08:28:24.908Z,8.00
2018-10-05T08:29:24.637Z,8.00
2018-10-05T08:30:24.585Z,8.00
2018-10-05T08:31:24.570Z,8.00
2018-10-05T08:32:24.582Z,8.00
2018-10-05T08:33:24.547Z,8.00
2018-10-05T08:34:24.559Z,8.00
2018-10-05T08:35:24.542Z,8.00
2018-10-05T08:36:24.534Z,8.00
2018-10-05T08:37:24.522Z,8.00
2018-10-05T08:38:24.531Z,8.00
2018-10-05T08:39:24.490Z,8.00
2018-10-05T08:40:24.504Z,12.00
2018-10-05T08:41:24.470Z,8.00
2018-10-05T08:42:24.473Z,8.00
2018-10-05T08:43:24.501Z,8.00
2018-10-05T08:44:24.535Z,8.00
2018-10-05T08:45:24.443Z,8.00
2018-10-05T08:46:24.444Z,8.00
2018-10-05T08:47:24.405Z,12.00
2018-10-05T08:48:24.419Z,8.00
2018-10-05T08:49:24.414Z,12.00
2018-10-05T08:50:24.388Z,12.00
2018-10-05T08:51:24.394Z,12.00
2018-10-05T08:52:24.462Z,16.00
2018-10-05T08:53:24.343Z,12.00
2018-10-05T08:54:24.343Z,12.00
2018-10-05T08:55:24.453Z,12.00
2018-10-05T08:56:24.331Z,16.00
2018-10-05T08:57:24.311Z,16.00
2018-10-05T08:58:24.297Z,16.00
2018-10-05T08:59:24.296Z,16.00
2018-10-05T09:00:24.341Z,20.00
2018-10-05T09:01:24.243Z,24.00
2018-10-05T09:02:24.254Z,16.00
2018-10-05T09:03:24.264Z,16.00
2018-10-05T09:04:24.287Z,20.00
2018-10-05T09:05:24.225Z,24.00
2018-10-05T09:06:24.490Z,24.00
2018-10-05T09:07:24.211Z,24.00
2018-10-05T09:08:24.189Z,28.00
2018-10-05T09:09:24.196Z,28.00
2018-10-05T09:10:24.184Z,28.00
2018-10-05T09:11:24.213Z,28.00
2018-10-05T09:12:24.152Z,32.00
2018-10-05T09:13:24.146Z,28.00
2018-10-05T09:14:24.149Z,32.00
2018-10-05T09:15:24.127Z,32.00
2018-10-05T09:16:24.140Z,32.00
2018-10-05T09:17:24.098Z,36.00
2018-10-05T09:18:24.085Z,36.00
2018-10-05T09:19:24.067Z,28.00
2018-10-05T09:20:24.067Z,28.00
2018-10-05T09:21:24.080Z,32.00
2018-10-05T09:22:24.069Z,32.00
2018-10-05T09:23:24.064Z,32.00
2018-10-05T09:24:24.042Z,36.00
2018-10-05T09:25:24.030Z,32.00
2018-10-05T09:26:23.987Z,32.00
2018-10-05T09:27:24.117Z,36.00
2018-10-05T09:28:23.985Z,32.00
2018-10-05T09:29:23.961Z,36.00
2018-10-05T09:30:24.004Z,40.00
2018-10-05T09:31:23.949Z,52.00
2018-10-05T09:32:23.936Z,56.00
2018-10-05T09:33:23.924Z,60.00
2018-10-05T09:34:23.961Z,56.00
2018-10-05T09:35:23.912Z,64.00
2018-10-05T09:36:23.897Z,80.00
2018-10-05T09:37:23.923Z,84.00
2018-10-05T09:38:24.196Z,80.00
2018-10-05T09:39:23.909Z,72.00
2018-10-05T09:40:23.872Z,68.00
2018-10-05T09:41:23.841Z,68.00
2018-10-05T09:42:23.844Z,72.00
2018-10-05T09:43:23.811Z,88.00
2018-10-05T09:44:23.968Z,92.00
2018-10-05T09:45:23.852Z,104.00
2018-10-05T09:46:23.797Z,92.00
2018-10-05T09:47:23.791Z,88.00
2018-10-05T09:48:23.771Z,80.00
2018-10-05T09:49:23.776Z,72.00
2018-10-05T09:50:23.821Z,80.00
2018-10-05T09:51:23.736Z,76.00
2018-10-05T09:52:23.851Z,76.00
2018-10-05T09:53:23.725Z,76.00
2018-10-05T09:54:23.713Z,76.00
2018-10-05T09:55:23.802Z,80.00
2018-10-05T09:56:23.694Z,80.00
2018-10-05T09:57:23.690Z,80.00
2018-10-05T09:58:23.645Z,92.00
2018-10-05T09:59:23.695Z,96.00
2018-10-05T10:00:23.725Z,104.00
2018-10-05T10:01:23.679Z,112.00
2018-10-05T10:02:23.614Z,104.00
2018-10-05T10:03:23.652Z,104.00
2018-10-05T10:04:23.590Z,120.00
2018-10-05T10:05:23.704Z,136.00
2018-10-05T10:06:23.572Z,132.00
2018-10-05T10:07:23.557Z,160.00
2018-10-05T10:08:23.608Z,160.00
2018-10-05T10:09:23.537Z,180.00
2018-10-05T10:10:23.584Z,168.00
2018-10-05T10:11:23.530Z,168.00
2018-10-05T10:12:23.564Z,156.00
2018-10-05T10:13:23.505Z,160.00
2018-10-05T10:14:23.495Z,240.00
2018-10-05T10:15:23.532Z,252.00
2018-10-05T10:16:23.522Z,240.00
2018-10-05T10:17:23.459Z,264.00
2018-10-05T10:18:23.476Z,264.00
2018-10-05T10:19:23.455Z,260.00
2018-10-05T10:20:23.458Z,240.00
2018-10-05T10:21:23.506Z,248.00
2018-10-05T10:22:23.410Z,264.00
2018-10-05T10:23:23.409Z,260.00
2018-10-05T10:24:23.404Z,256.00
2018-10-05T10:25:23.435Z,268.00
2018-10-05T10:26:23.375Z,288.00
2018-10-05T10:27:23.361Z,300.00
2018-10-05T10:28:23.362Z,300.00
2018-10-05T10:29:23.375Z,320.00
2018-10-05T10:30:23.341Z,356.00
2018-10-05T10:31:23.317Z,372.00
2018-10-05T10:32:23.418Z,380.00
2018-10-05T10:33:23.279Z,340.00
2018-10-05T10:34:23.280Z,296.00
2018-10-05T10:35:23.329Z,340.00
2018-10-05T10:36:23.244Z,344.00
2018-10-05T10:37:23.257Z,392.00
2018-10-05T10:38:23.229Z,380.00
2018-10-05T10:39:23.225Z,424.00
2018-10-05T10:40:23.233Z,384.00
2018-10-05T10:41:23.221Z,412.00
2018-10-05T10:42:23.209Z,408.00
2018-10-05T10:43:23.191Z,404.00
2018-10-05T10:44:23.174Z,400.00
2018-10-05T10:45:23.162Z,372.00
2018-10-05T10:46:23.177Z,332.00
2018-10-05T10:47:23.140Z,328.00
2018-10-05T10:48:23.149Z,332.00
2018-10-05T10:49:23.121Z,360.00
2018-10-05T10:50:23.124Z,304.00
2018-10-05T10:51:23.122Z,300.00
2018-10-05T10:52:23.096Z,288.00
2018-10-05T10:53:23.135Z,248.00
2018-10-05T10:54:23.092Z,248.00
2018-10-05T10:55:23.062Z,288.00
2018-10-05T10:56:23.106Z,276.00
2018-10-05T10:57:23.043Z,284.00
2018-10-05T10:58:23.112Z,264.00
2018-10-05T10:59:23.030Z,224.00
2018-10-05T11:00:23.030Z,216.00
2018-10-05T11:01:23.025Z,220.00
2018-10-05T11:02:23.004Z,212.00
2018-10-05T11:03:23.067Z,252.00
2018-10-05T11:04:23.049Z,264.00
2018-10-05T11:05:22.976Z,252.00
2018-10-05T11:06:22.966Z,244.00
2018-10-05T11:07:22.938Z,232.00
2018-10-05T11:08:23.029Z,228.00
2018-10-05T11:09:22.935Z,228.00
2018-10-05T11:10:22.916Z,244.00
2018-10-05T11:11:22.920Z,232.00
2018-10-05T11:12:22.936Z,220.00
2018-10-05T11:13:23.195Z,192.00
2018-10-05T11:14:22.906Z,180.00
2018-10-05T11:15:22.854Z,184.00
2018-10-05T11:16:22.864Z,180.00
2018-10-05T11:17:22.875Z,172.00
2018-10-05T11:18:22.920Z,172.00
2018-10-05T11:19:22.810Z,164.00
2018-10-05T11:20:22.794Z,184.00
2018-10-05T11:21:22.822Z,180.00
2018-10-05T11:22:22.834Z,176.00
2018-10-05T11:23:22.948Z,188.00
2018-10-05T11:24:22.779Z,192.00
2018-10-05T11:25:22.764Z,196.00
2018-10-05T11:26:22.749Z,204.00
2018-10-05T11:27:22.745Z,180.00
2018-10-05T11:28:22.726Z,176.00
2018-10-05T11:29:22.723Z,188.00
2018-10-05T11:30:22.777Z,180.00
2018-10-05T11:31:22.695Z,168.00
2018-10-05T11:32:22.695Z,172.00
2018-10-05T11:33:22.716Z,180.00
2018-10-05T11:34:22.689Z,204.00
2018-10-05T11:35:22.671Z,200.00
2018-10-05T11:36:22.634Z,192.00
2018-10-05T11:37:22.648Z,208.00
2018-10-05T11:38:22.691Z,208.00
2018-10-05T11:39:22.624Z,196.00
2018-10-05T11:40:22.615Z,204.00
2018-10-05T11:41:22.604Z,216.00
2018-10-05T11:42:22.635Z,240.00
2018-10-05T11:43:22.674Z,268.00
2018-10-05T11:44:22.560Z,276.00
2018-10-05T11:45:22.573Z,268.00
2018-10-05T11:46:22.633Z,268.00
2018-10-05T11:47:22.555Z,228.00
2018-10-05T11:48:22.519Z,220.00
2018-10-05T11:49:22.622Z,208.00
2018-10-05T11:50:22.512Z,196.00
2018-10-05T11:51:22.503Z,204.00
2018-10-05T11:52:22.537Z,208.00
2018-10-05T11:53:22.509Z,216.00
2018-10-05T11:54:22.486Z,216.00
2018-10-05T11:55:22.461Z,224.00
2018-10-05T11:56:22.453Z,240.00
2018-10-05T11:57:22.470Z,236.00
2018-10-05T11:58:22.435Z,244.00
2018-10-05T11:59:22.406Z,220.00
2018-10-05T12:00:22.391Z,228.00
2018-10-05T12:01:22.400Z,220.00
2018-10-05T12:02:22.409Z,220.00
2018-10-05T12:03:22.379Z,228.00
2018-10-05T12:04:22.364Z,240.00
2018-10-05T12:05:22.524Z,256.00
2018-10-05T12:06:22.325Z,276.00
2018-10-05T12:07:22.360Z,264.00
2018-10-05T12:08:22.310Z,240.00
2018-10-05T12:09:22.293Z,248.00
2018-10-05T12:10:22.292Z,248.00
2018-10-05T12:11:22.328Z,232.00
2018-10-05T12:12:22.272Z,228.00
2018-10-05T12:13:22.259Z,228.00
2018-10-05T12:14:22.270Z,220.00
2018-10-05T12:15:22.229Z,216.00
2018-10-05T12:16:22.220Z,220.00
2018-10-05T12:17:22.220Z,252.00
2018-10-05T12:18:22.214Z,276.00
2018-10-05T12:19:22.193Z,272.00
2018-10-05T12:20:22.178Z,264.00
2018-10-05T12:21:22.288Z,280.00
2018-10-05T12:22:22.155Z,256.00
2018-10-05T12:23:22.172Z,264.00
2018-10-05T12:24:22.151Z,260.00
2018-10-05T12:25:22.144Z,244.00
2018-10-05T12:26:22.131Z,240.00
2018-10-05T12:27:22.132Z,224.00
2018-10-05T12:28:22.101Z,208.00
2018-10-05T12:29:22.093Z,204.00
2018-10-05T12:30:22.091Z,208.00
2018-10-05T12:31:22.078Z,212.00
2018-10-05T12:32:24.119Z,220.00
2018-10-05T12:33:22.171Z,220.00
2018-10-05T12:34:22.056Z,228.00
2018-10-05T12:35:22.209Z,240.00
2018-10-05T12:36:22.016Z,240.00
2018-10-05T12:37:22.013Z,256.00
2018-10-05T12:38:22.008Z,256.00
2018-10-05T12:39:22.002Z,244.00
2018-10-05T12:40:22.017Z,256.00
2018-10-05T12:41:21.973Z,244.00
2018-10-05T12:42:21.968Z,232.00
2018-10-05T12:43:21.945Z,224.00
2018-10-05T12:44:22.044Z,220.00
2018-10-05T12:45:21.940Z,224.00
2018-10-05T12:46:21.930Z,216.00
2018-10-05T12:47:21.938Z,220.00
2018-10-05T12:48:21.871Z,220.00
2018-10-05T12:49:21.991Z,216.00
2018-10-05T12:50:21.887Z,228.00
2018-10-05T12:51:21.839Z,248.00
2018-10-05T12:52:21.837Z,268.00
2018-10-05T12:53:21.828Z,288.00
2018-10-05T12:54:21.841Z,304.00
2018-10-05T12:55:21.823Z,280.00
2018-10-05T12:56:21.816Z,284.00
2018-10-05T12:57:21.803Z,296.00
2018-10-05T12:58:21.767Z,304.00
2018-10-05T12:59:21.825Z,300.00
2018-10-05T13:00:21.779Z,276.00
2018-10-05T13:01:21.754Z,276.00
2018-10-05T13:02:21.759Z,276.00
2018-10-05T13:03:21.745Z,244.00